CST,Max TemperatureF,Mean TemperatureF,Min TemperatureF,Max Dew PointF,MeanDew PointF,Min DewpointF,Max Humidity, Mean Humidity, Min Humidity, Max Sea Level PressureIn, Mean Sea Level PressureIn, Min Sea Level PressureIn, Max VisibilityMiles, Mean VisibilityMiles, Min VisibilityMiles, Max Wind SpeedMPH, Mean Wind SpeedMPH, Max Gust SpeedMPH,PrecipitationIn, CloudCover, Events, WindDirDegrees
2013-2-1,28,22,15,28,16,10,100,80,64,30.45,30.35,30.13,10,10,1,14,7,,0.00,3,,302
2013-2-2,37,28,19,36,27,18,100,92,74,30.30,30.17,30.05,10,9,0,13,4,,0.00,3,,211
2013-2-3,42,32,21,36,30,21,100,89,65,30.16,30.08,29.99,10,10,3,16,5,22,0.00,4,,271
2013-2-4,51,36,21,36,29,19,100,72,47,30.13,30.00,29.92,10,10,8,15,4,,0.00,2,,213
2013-2-5,57,44,30,45,38,28,100,83,58,30.05,29.97,29.92,10,10,10,9,5,,0.00,4,,221
2013-2-6,57,40,24,39,33,25,100,79,41,30.21,30.14,30.06,10,10,10,7,0,,0.00,0,,346
2013-2-7,59,47,35,48,41,36,100,83,51,30.11,30.01,29.92,10,9,1,13,2,,0.00,3,,166
2013-2-8,44,38,33,45,37,28,100,91,81,30.30,30.11,29.87,10,9,2,12,5,,0.00,7,,6
2013-2-9,55,39,23,37,29,23,100,68,38,30.34,30.26,30.17,10,10,10,10,4,,0.00,1,,72
2013-2-10,55,50,44,54,41,30,100,71,47,30.18,30.05,29.91,10,9,2,26,11,36,0.00,3,,178
2013-2-11,55,45,35,55,41,28,100,78,41,30.14,30.06,29.94,10,10,8,12,6,,0.00,2,,254
2013-2-12,51,42,33,43,34,28,100,76,41,30.16,30.04,29.82,10,10,8,6,1,,0.00,2,,72
2013-2-13,44,40,35,43,37,34,100,93,81,30.00,29.83,29.69,10,7,1,12,4,,0.00,8,,7
2013-2-14,57,44,30,39,35,28,100,83,48,30.05,30.01,29.97,10,10,9,13,3,17,0.00,1,,218
2013-2-15,44,36,28,37,31,21,100,81,61,30.13,30.08,30.02,10,10,10,8,2,,0.00,3,,326
2013-2-16,33,24,15,21,17,10,100,70,44,30.16,30.10,30.06,10,10,10,15,4,,0.00,0,,339
2013-2-17,42,27,12,25,16,10,100,69,36,30.27,30.21,30.16,10,10,10,9,2,,0.00,0,,252
2013-2-18,59,46,32,37,29,19,81,50,39,30.22,30.08,29.90,10,10,4,22,11,32,0.00,2,,183
2013-2-19,48,36,23,43,29,18,100,68,37,30.20,30.04,29.88,10,9,4,17,9,21,0.00,3,,273
2013-2-20,33,26,19,21,17,14,93,70,48,30.29,30.23,30.18,10,10,10,8,3,,0.00,0,,358
2013-2-21,55,37,19,43,25,16,100,67,22,30.22,30.08,29.90,10,9,2,17,4,26,0.00,2,,92
2013-2-22,53,48,42,48,46,43,100,89,82,30.04,29.98,29.88,10,10,9,18,11,28,0.00,6,,191
2013-2-23,53,42,30,45,38,28,100,83,54,30.01,29.95,29.87,10,10,5,7,2,,0.00,4,,320
2013-2-24,51,37,23,30,26,23,100,70,37,30.11,30.04,29.97,10,10,8,10,2,,0.00,0,,40
2013-2-25,62,44,26,45,32,25,100,62,31,30.01,29.89,29.62,10,10,10,17,4,,0.00,2,,126
2013-2-26,51,44,37,48,42,34,100,84,66,29.70,29.54,29.44,10,10,4,23,14,28,0.00,7,,201
2013-2-27,39,37,35,34,32,28,93,82,70,29.87,29.82,29.71,10,10,5,13,9,24,0.00,7,,252
2013-2-28,35,32,30,30,27,25,100,78,65,30.02,29.94,29.83,10,10,4,10,6,,0.00,6,,297